Salida, CO

1:23 AM MDT on August 31, 2014 (GMT -0600)
Salida | Change Station
CLOSE
Current Station
Airport
Location: Salida,
Elevation: 7523 ft
Nearby Weather Stations

Elev 7523 ft 38.54 °N, 106.05 °W | Updated 8 minutes ago

Clear
Clear
55 °F
Feels Like 55 °F
N
0
Wind Variable Wind from North

Today
High -- | Low -- °F
--% Chance of Precip.
Yesterday
High -- | Low -- °F
Precip. -- in
6:32 AM 7:35 PM
Waxing Crescent, 28% visible
Pressure 30.21 in
Visibility 10.0 miles
Clouds Clear
Dew Point 42 °F
Humidity 60%
Rainfall 0.00 in
Snow Depth Not available.
UV 0 out of 12
Pollen 10.20 out of 12
Air Quality Not available.
Flu Activity Not available.
METAR KANK 310715Z AUTO 00000KT 10SM CLR 13/05 A3021 RMK AO1 T01280053

More Conditions Fewer Conditions

Pressure 30.21 in
Visibility 10.0 miles
Clouds Clear
Dew Point 42 °F
Humidity 60%
Rainfall 0.00 in
Snow Depth Not available.
UV 0 out of 12
Pollen 10.20 out of 12
Air Quality Not available.
Flu Activity Not available.
METAR KANK 310715Z AUTO 00000KT 10SM CLR 13/05 A3021 RMK AO1 T01280053

More Conditions Fewer Conditions

10-Day Weather Forecast

Almanac

Astronomy

Aug. 31, 2014 Rise Set
Actual Time 6:32 AM MDT 7:35 PM MDT
Civil Twilight 6:05 AM MDT 8:02 PM MDT
Nautical Twilight 5:32 AM MDT 8:34 PM MDT
Astronomical Twilight 4:59 AM MDT 9:08 PM MDT
Moon 12:17 PM MDT 10:57 PM MDT
Length of Visible Light 13h 57m
Length of Day
13h 02m
Tomorrow will be 2m 23s shorter.
Waxing Crescent, 28% of the Moon is Illuminated
Today
Waxing Crescent
Sep 2
First Quarter
Sep 8
Full
Sep 15
Last Quarter
Sep 24
New

Today's Extremes

State Highs State Lows

Community

WunderPhotos

Upload Photos

1,748,809 photos uploaded!

Nearby

Snow Depth

Station Depth Elevation
Porphyry Creek 0 in 10760 ft
Rough And Tumble 1 in 10360 ft
Park Cone 0 in 9600 ft
Brumley 0 in 10600 ft
Independence Pass 190 in 10600 ft

Earthquake Activity

City Distance Mag. Time & Date
No recent earthquake activity has been reported nearby.
Minimum magnitude displayed is 2.5.

Coastal Water Temperatures

Place Temperature
No Stations Reporting

Nearby Weather Stations